Time;durP1;ratioP1;P1;durP2;ratioP2;P2;SDS_P1;SDS_P2;PMS_P1;PMS_P2;Temp;Humidity;BMP_temperature;BMP_pressure;BME280_temperature;BME280_humidity;BME280_pressure;Samples;Min_cycle;Max_cycle;Signal;HPM_P1;HPM_P2
2021/03/08 00:00:16;;;;;;;29.87;18.00;;;2.90;99.90;;;;;;5068623;28;20212;-71
2021/03/08 00:02:45;;;;;;;31.90;17.50;;;2.90;99.90;;;;;;5065789;28;20188;-72
2021/03/08 00:05:15;;;;;;;33.77;18.43;;;2.80;99.90;;;;;;5070828;28;20203;-72
2021/03/08 00:07:47;;;;;;;37.50;19.43;;;2.80;99.90;;;;;;5068207;28;20192;-73
2021/03/08 00:10:16;;;;;;;30.17;17.17;;;2.80;99.90;;;;;;5065094;28;20195;-73
2021/03/08 00:12:44;;;;;;;28.40;17.47;;;2.80;99.90;;;;;;5069313;28;20203;-72
2021/03/08 00:15:13;;;;;;;30.47;17.23;;;2.80;99.90;;;;;;5065768;28;20240;-72
2021/03/08 00:17:40;;;;;;;33.10;18.57;;;2.80;99.90;;;;;;5067332;28;20312;-72
2021/03/08 00:20:11;;;;;;;31.20;16.97;;;2.80;99.90;;;;;;5077914;28;20260;-72
2021/03/08 00:22:39;;;;;;;33.10;18.20;;;2.80;99.90;;;;;;5077289;28;20299;-72
2021/03/08 00:25:10;;;;;;;34.93;18.23;;;2.80;99.90;;;;;;5065890;28;20196;-72
2021/03/08 00:27:37;;;;;;;31.73;17.37;;;2.80;99.90;;;;;;5065424;28;20295;-72
2021/03/08 00:30:07;;;;;;;33.30;17.50;;;2.80;99.90;;;;;;5073405;28;20286;-71
2021/03/08 00:32:34;;;;;;;31.00;17.23;;;2.80;99.90;;;;;;5066975;28;20223;-72
2021/03/08 00:35:02;;;;;;;27.23;16.57;;;2.80;99.90;;;;;;5069774;28;20294;-71
2021/03/08 00:37:33;;;;;;;33.87;18.20;;;2.70;99.90;;;;;;5065848;28;20196;-72
2021/03/08 00:40:01;;;;;;;30.67;17.57;;;2.70;99.90;;;;;;5066682;28;20244;-72
2021/03/08 00:42:29;;;;;;;32.73;17.63;;;2.60;99.90;;;;;;5069566;28;20230;-72
2021/03/08 00:44:56;;;;;;;37.13;18.27;;;2.50;99.90;;;;;;5071583;28;21023;-72
2021/03/08 00:47:25;;;;;;;33.50;17.03;;;2.40;99.90;;;;;;5071339;28;20287;-72
2021/03/08 00:49:56;;;;;;;31.27;17.20;;;2.30;99.90;;;;;;5068458;28;20188;-72
2021/03/08 00:52:23;;;;;;;28.90;16.73;;;2.20;99.90;;;;;;5070875;28;20325;-72
2021/03/08 00:54:52;;;;;;;35.00;16.73;;;2.00;99.90;;;;;;5070224;28;20283;-72
2021/03/08 00:57:21;;;;;;;32.67;17.30;;;1.90;99.90;;;;;;5077252;28;20703;-72
2021/03/08 00:59:48;;;;;;;35.97;18.03;;;1.70;99.90;;;;;;5071279;28;20320;-72
2021/03/08 01:02:16;;;;;;;35.90;17.40;;;1.60;99.90;;;;;;5071543;28;20659;-72
2021/03/08 01:04:44;;;;;;;31.33;16.67;;;1.50;99.90;;;;;;5069037;28;20196;-71
2021/03/08 01:07:11;;;;;;;35.80;18.67;;;1.40;99.90;;;;;;5068331;28;20231;-72
2021/03/08 01:09:39;;;;;;;29.33;16.37;;;1.30;99.90;;;;;;5075868;28;20195;-72
2021/03/08 01:12:09;;;;;;;38.10;17.53;;;1.20;99.90;;;;;;5078065;28;20231;-72
2021/03/08 01:14:37;;;;;;;34.57;18.57;;;1.10;99.90;;;;;;5068772;28;20327;-72
2021/03/08 01:17:04;;;;;;;36.03;17.40;;;1.00;99.90;;;;;;5069122;28;20199;-72
2021/03/08 01:19:33;;;;;;;33.87;16.97;;;0.90;99.90;;;;;;5075093;28;20220;-72
2021/03/08 01:22:01;;;;;;;32.50;16.93;;;0.90;99.90;;;;;;5071069;28;20273;-72
2021/03/08 01:24:28;;;;;;;37.03;17.83;;;0.80;99.90;;;;;;5070410;28;20322;-72
2021/03/08 01:26:58;;;;;;;29.90;16.77;;;0.70;99.90;;;;;;5068649;28;20203;-72
2021/03/08 01:29:26;;;;;;;33.87;17.50;;;0.60;99.90;;;;;;5071070;28;20291;-71
2021/03/08 01:31:53;;;;;;;36.53;18.33;;;0.60;99.90;;;;;;5069767;28;20200;-72
2021/03/08 01:34:21;;;;;;;36.47;17.63;;;0.50;99.90;;;;;;5073367;28;20245;-72
2021/03/08 01:36:49;;;;;;;37.70;17.73;;;0.50;99.90;;;;;;5070524;28;20659;-72
2021/03/08 01:39:16;;;;;;;35.60;18.73;;;0.50;99.90;;;;;;5069654;28;20279;-72
2021/03/08 01:41:43;;;;;;;35.80;17.67;;;0.40;99.90;;;;;;5066610;28;20204;-72
2021/03/08 01:44:11;;;;;;;38.77;18.93;;;0.40;99.90;;;;;;5070999;28;20192;-72
2021/03/08 01:46:39;;;;;;;39.10;20.03;;;0.30;99.90;;;;;;5068522;28;20623;-72
2021/03/08 01:49:07;;;;;;;38.30;19.60;;;0.30;99.90;;;;;;5066752;28;20196;-72
2021/03/08 01:51:35;;;;;;;37.17;19.80;;;0.20;99.90;;;;;;5066689;28;20193;-72
2021/03/08 01:54:03;;;;;;;38.90;20.03;;;0.10;99.90;;;;;;5073742;28;20199;-71
2021/03/08 01:56:30;;;;;;;34.70;19.30;;;0.10;99.90;;;;;;5075682;28;20222;-72
2021/03/08 01:58:58;;;;;;;42.20;20.40;;;0.10;99.90;;;;;;5058489;28;20720;-72
2021/03/08 02:01:25;;;;;;;37.93;20.20;;;0.00;99.90;;;;;;5065377;28;20211;-71
2021/03/08 02:03:56;;;;;;;41.00;19.47;;;0.00;99.90;;;;;;5068797;28;20224;-72
2021/03/08 02:06:24;;;;;;;47.17;20.93;;;0.00;99.90;;;;;;5066267;28;20254;-72
2021/03/08 02:08:51;;;;;;;40.47;19.80;;;-0.10;99.90;;;;;;5076951;28;20676;-72
2021/03/08 02:11:18;;;;;;;38.47;20.50;;;-0.10;99.90;;;;;;5075247;28;20192;-72
2021/03/08 02:14:00;;;;;;;40.10;19.47;;;-0.20;99.90;;;;;;5078699;28;20241;-72
2021/03/08 02:16:33;;;;;;;42.67;19.63;;;-0.20;99.90;;;;;;5067202;28;20211;-72
2021/03/08 02:19:06;;;;;;;38.63;18.90;;;-0.30;99.90;;;;;;5068987;28;20257;-72
2021/03/08 02:22:06;;;;;;;42.93;19.77;;;-0.30;99.90;;;;;;5067763;28;20219;-72
2021/03/08 02:25:12;;;;;;;37.63;18.47;;;-0.30;99.90;;;;;;5070378;28;20266;-72
2021/03/08 02:28:10;;;;;;;42.30;19.20;;;-0.30;99.90;;;;;;5068727;28;20200;-72
2021/03/08 02:30:46;;;;;;;38.53;19.00;;;-0.40;99.90;;;;;;5067421;28;20192;-72
2021/03/08 02:33:20;;;;;;;41.53;19.90;;;-0.50;99.90;;;;;;5068073;28;20305;-72
2021/03/08 02:35:55;;;;;;;40.57;18.93;;;-0.50;99.90;;;;;;5065746;28;20235;-72
2021/03/08 02:38:27;;;;;;;37.33;18.77;;;-0.50;99.90;;;;;;5068414;28;20188;-71
2021/03/08 02:41:00;;;;;;;41.07;19.43;;;-0.60;99.90;;;;;;5072202;28;20196;-72
2021/03/08 02:43:32;;;;;;;42.07;19.87;;;-0.60;99.90;;;;;;5075334;28;20257;-72
2021/03/08 02:46:08;;;;;;;46.60;20.50;;;-0.70;99.90;;;;;;5066517;28;20191;-72
2021/03/08 02:48:41;;;;;;;39.20;20.37;;;-0.70;99.90;;;;;;5067944;28;20199;-72
2021/03/08 02:51:11;;;;;;;44.23;20.57;;;-0.70;99.90;;;;;;5068114;28;20574;-72
2021/03/08 02:53:41;;;;;;;42.13;20.50;;;-0.70;99.90;;;;;;5067979;28;20231;-72
2021/03/08 02:56:13;;;;;;;39.80;19.57;;;-0.80;99.90;;;;;;5048667;28;20211;-72
2021/03/08 02:58:43;;;;;;;38.80;19.07;;;-0.80;99.90;;;;;;5077764;28;20287;-72
2021/03/08 03:01:16;;;;;;;46.67;20.47;;;-0.90;99.90;;;;;;5069653;28;20308;-72
2021/03/08 03:03:47;;;;;;;45.50;20.67;;;-0.90;99.90;;;;;;5067052;28;20195;-72
2021/03/08 03:06:15;;;;;;;47.23;20.70;;;-1.00;99.90;;;;;;5071435;28;20204;-71
2021/03/08 03:08:43;;;;;;;45.97;20.43;;;-1.00;99.90;;;;;;5070845;28;20213;-71
2021/03/08 03:11:12;;;;;;;42.83;20.60;;;-1.00;99.90;;;;;;5072410;28;20188;-71
2021/03/08 03:13:42;;;;;;;41.30;20.33;;;-1.10;99.90;;;;;;5069089;28;20319;-71
2021/03/08 03:16:11;;;;;;;43.87;20.00;;;-1.10;99.90;;;;;;5066541;28;20287;-71
2021/03/08 03:18:41;;;;;;;45.10;20.27;;;-1.10;99.90;;;;;;5068584;28;20200;-72
2021/03/08 03:21:10;;;;;;;45.43;20.90;;;-1.10;99.90;;;;;;5068718;28;20212;-71
2021/03/08 03:23:38;;;;;;;46.67;20.10;;;-1.10;99.90;;;;;;5069325;28;20277;-72
2021/03/08 03:26:06;;;;;;;46.77;20.47;;;-1.10;99.90;;;;;;5065345;28;20688;-70
2021/03/08 03:28:35;;;;;;;46.40;20.43;;;-1.10;99.90;;;;;;5075686;28;20230;-72
2021/03/08 03:31:03;;;;;;;47.80;21.90;;;-1.20;99.90;;;;;;5073343;28;20194;-70
2021/03/08 03:33:33;;;;;;;45.17;20.63;;;-1.20;99.90;;;;;;5068437;28;20200;-72
2021/03/08 03:36:02;;;;;;;47.20;21.57;;;-1.20;99.90;;;;;;5069108;28;20188;-71
2021/03/08 03:38:30;;;;;;;49.23;22.53;;;-1.30;99.90;;;;;;5066896;28;20772;-72
2021/03/08 03:40:57;;;;;;;45.80;21.30;;;-1.30;99.90;;;;;;5067420;28;20208;-72
2021/03/08 03:43:25;;;;;;;46.23;20.90;;;-1.30;99.90;;;;;;5047402;28;20196;-71
2021/03/08 03:45:53;;;;;;;53.97;21.40;;;-1.30;99.90;;;;;;5068858;28;20196;-72
2021/03/08 03:48:21;;;;;;;51.07;22.77;;;-1.30;99.90;;;;;;5068895;28;20693;-71
2021/03/08 03:50:48;;;;;;;44.67;20.33;;;-1.40;99.90;;;;;;5071247;28;20257;-71
2021/03/08 03:53:16;;;;;;;46.07;21.23;;;-1.40;99.90;;;;;;5066138;28;20605;-71
2021/03/08 03:55:44;;;;;;;50.17;21.73;;;-1.40;99.90;;;;;;5071045;28;20194;-71
2021/03/08 03:58:18;;;;;;;44.60;20.70;;;-1.50;99.90;;;;;;5067471;28;20287;-72
2021/03/08 04:00:53;;;;;;;47.33;21.10;;;-1.50;99.90;;;;;;5069410;28;20203;-70
2021/03/08 04:03:26;;;;;;;49.40;21.00;;;-1.50;99.90;;;;;;5074270;28;20200;-71
2021/03/08 04:05:56;;;;;;;44.03;20.70;;;-1.50;99.90;;;;;;5071320;28;20191;-70
2021/03/08 04:08:26;;;;;;;48.17;21.67;;;-1.50;99.90;;;;;;5062102;28;20192;-71
2021/03/08 04:10:57;;;;;;;52.80;21.20;;;-1.50;99.90;;;;;;5067943;28;20220;-71
2021/03/08 04:13:30;;;;;;;56.47;22.20;;;-1.50;99.90;;;;;;5072251;28;20202;-71
2021/03/08 04:15:59;;;;;;;48.33;21.73;;;-1.50;99.90;;;;;;5070469;28;20192;-70
2021/03/08 04:18:28;;;;;;;48.80;21.03;;;-1.50;99.90;;;;;;5068511;28;20222;-71
2021/03/08 04:20:59;;;;;;;48.03;21.43;;;-1.50;99.90;;;;;;5071259;28;20304;-69
2021/03/08 04:23:29;;;;;;;49.90;22.10;;;-1.50;99.90;;;;;;5069410;28;20845;-71
2021/03/08 04:25:57;;;;;;;47.63;21.50;;;-1.50;99.90;;;;;;5071850;28;20245;-72
2021/03/08 04:28:25;;;;;;;52.50;21.83;;;-1.50;99.90;;;;;;5072293;28;20627;-71
2021/03/08 04:30:55;;;;;;;51.87;21.33;;;-1.50;99.90;;;;;;5071729;28;20299;-72
2021/03/08 04:33:24;;;;;;;49.30;22.17;;;-1.50;99.90;;;;;;5069404;28;20197;-71
2021/03/08 04:35:56;;;;;;;51.93;22.57;;;-1.50;99.90;;;;;;5070727;28;20279;-71
2021/03/08 04:38:25;;;;;;;48.83;21.70;;;-1.40;99.90;;;;;;5069907;28;20196;-71
2021/03/08 04:40:54;;;;;;;46.97;22.13;;;-1.40;99.90;;;;;;5078565;28;21229;-70
2021/03/08 04:43:23;;;;;;;49.37;21.50;;;-1.40;99.90;;;;;;5075107;28;20192;-71
2021/03/08 04:45:56;;;;;;;47.30;21.97;;;-1.40;99.90;;;;;;5068754;28;20216;-71
2021/03/08 04:48:28;;;;;;;47.50;21.67;;;-1.40;99.90;;;;;;5071384;28;20287;-72
2021/03/08 04:50:57;;;;;;;47.53;22.13;;;-1.40;99.90;;;;;;5073221;28;20203;-70
2021/03/08 04:53:25;;;;;;;46.53;21.07;;;-1.40;99.90;;;;;;5069347;28;20673;-71
2021/03/08 04:55:53;;;;;;;46.07;21.17;;;-1.30;99.90;;;;;;5074029;28;20192;-71
2021/03/08 04:58:21;;;;;;;48.33;21.70;;;-1.30;99.90;;;;;;5074403;28;20205;-71
2021/03/08 05:00:48;;;;;;;53.53;21.93;;;-1.30;99.90;;;;;;5083418;28;21048;-72
2021/03/08 05:03:16;;;;;;;49.87;22.50;;;-1.30;99.90;;;;;;5083132;28;20196;-72
2021/03/08 05:05:46;;;;;;;49.20;20.83;;;-1.20;99.90;;;;;;5072266;28;20195;-72
2021/03/08 05:08:15;;;;;;;51.67;22.27;;;-1.20;99.90;;;;;;5069767;28;20192;-71
2021/03/08 05:10:42;;;;;;;51.53;22.90;;;-1.20;99.90;;;;;;5069799;28;20227;-71
2021/03/08 05:13:12;;;;;;;52.80;22.60;;;-1.20;99.90;;;;;;5069734;28;20294;-69
2021/03/08 05:15:41;;;;;;;49.30;21.63;;;-1.20;99.90;;;;;;5069789;28;20277;-71
2021/03/08 05:18:09;;;;;;;46.97;21.43;;;-1.20;99.90;;;;;;5078184;28;20286;-72
2021/03/08 05:20:37;;;;;;;58.37;25.23;;;-1.20;99.90;;;;;;5074652;28;21811;-70
2021/03/08 05:23:06;;;;;;;48.23;23.10;;;-1.20;99.90;;;;;;5073168;28;20224;-73
2021/03/08 05:25:34;;;;;;;51.97;24.03;;;-1.20;99.90;;;;;;5053060;28;20531;-72
2021/03/08 05:28:04;;;;;;;53.23;23.97;;;-1.20;99.90;;;;;;5074805;28;20669;-72
2021/03/08 05:30:32;;;;;;;58.70;24.90;;;-1.20;99.90;;;;;;5083140;28;20192;-71
2021/03/08 05:33:11;;;;;;;58.17;23.40;;;-1.20;99.90;;;;;;5069536;28;20239;-72
2021/03/08 05:35:42;;;;;;;51.50;22.80;;;-1.20;99.90;;;;;;5072787;28;20191;-72
2021/03/08 05:38:10;;;;;;;50.53;21.73;;;-1.20;99.90;;;;;;5071981;28;20223;-70
2021/03/08 05:40:42;;;;;;;60.73;25.17;;;-1.10;99.90;;;;;;5068192;28;20309;-72
2021/03/08 05:43:11;;;;;;;55.37;22.87;;;-1.10;99.90;;;;;;5068530;28;20192;-72
2021/03/08 05:45:53;;;;;;;50.37;22.43;;;-1.00;99.90;;;;;;5069324;28;20283;-71
2021/03/08 05:48:37;;;;;;;50.70;22.03;;;-0.90;99.90;;;;;;5081041;28;20651;-72
2021/03/08 05:51:25;;;;;;;51.90;22.97;;;-0.90;99.90;;;;;;5076352;28;20191;-72
2021/03/08 05:54:37;;;;;;;52.10;22.97;;;-0.90;99.90;;;;;;5068956;28;20204;-72
2021/03/08 05:57:25;;;;;;;55.30;22.97;;;-0.80;99.90;;;;;;5068906;28;20215;-72
2021/03/08 06:00:03;;;;;;;53.43;23.37;;;-0.80;99.90;;;;;;5061628;28;20275;-72
2021/03/08 06:03:00;;;;;;;54.97;23.77;;;-0.80;99.90;;;;;;5072879;28;20286;-72
2021/03/08 06:06:06;;;;;;;49.43;22.47;;;-0.70;99.90;;;;;;5056732;28;20619;-72
2021/03/08 06:09:18;;;;;;;56.57;23.57;;;-0.70;99.90;;;;;;5071335;28;20628;-72
2021/03/08 06:11:49;;;;;;;53.77;22.43;;;-0.70;99.90;;;;;;5062946;28;20657;-72
2021/03/08 06:14:20;;;;;;;58.03;24.63;;;-0.70;99.90;;;;;;5065767;28;20314;-71
2021/03/08 06:16:48;;;;;;;60.87;24.27;;;-0.70;99.90;;;;;;5069104;28;20199;-72
2021/03/08 06:19:19;;;;;;;54.60;24.53;;;-0.60;99.90;;;;;;5077866;28;20192;-72
2021/03/08 06:21:49;;;;;;;54.80;24.33;;;-0.60;99.90;;;;;;5066124;28;21435;-72
2021/03/08 06:24:17;;;;;;;57.33;25.20;;;-0.50;99.90;;;;;;5064692;28;20643;-70
2021/03/08 06:26:47;;;;;;;57.27;24.70;;;-0.50;99.90;;;;;;5069391;28;20282;-72
2021/03/08 06:29:15;;;;;;;50.20;23.20;;;-0.40;99.90;;;;;;5073133;28;20192;-72
2021/03/08 06:31:43;;;;;;;53.03;23.67;;;-0.50;99.90;;;;;;5067505;28;20648;-72
2021/03/08 06:34:11;;;;;;;51.77;23.57;;;-0.40;99.90;;;;;;5069026;28;20184;-72
2021/03/08 06:36:39;;;;;;;56.20;24.13;;;-0.40;99.90;;;;;;5061257;28;20196;-72
2021/03/08 06:39:10;;;;;;;53.70;24.17;;;-0.40;99.90;;;;;;5068350;28;20288;-72
2021/03/08 06:41:37;;;;;;;57.17;25.37;;;-0.40;99.90;;;;;;5065628;28;20759;-72
2021/03/08 06:44:05;;;;;;;59.37;24.17;;;-0.40;99.90;;;;;;5071125;28;20233;-72
2021/03/08 06:46:33;;;;;;;55.63;24.47;;;-0.40;99.90;;;;;;5068621;28;20761;-72
2021/03/08 06:49:02;;;;;;;57.27;24.50;;;-0.30;99.90;;;;;;5073754;28;20188;-72
2021/03/08 06:51:29;;;;;;;58.00;25.03;;;-0.30;99.90;;;;;;5085400;28;20743;-72
2021/03/08 06:53:57;;;;;;;59.30;26.20;;;-0.20;99.90;;;;;;5071920;28;20611;-69
2021/03/08 06:56:26;;;;;;;65.93;25.80;;;-0.20;99.90;;;;;;5066682;28;20189;-72
2021/03/08 06:59:04;;;;;;;58.83;26.17;;;0.00;99.90;;;;;;5068540;28;20230;-72
2021/03/08 07:01:33;;;;;;;56.17;25.27;;;0.00;99.90;;;;;;5067787;28;20310;-72
2021/03/08 07:04:23;;;;;;;61.33;24.57;;;0.20;99.90;;;;;;5066545;28;20215;-72
2021/03/08 07:07:02;;;;;;;56.40;25.83;;;0.20;99.90;;;;;;5083689;28;20207;-73
2021/03/08 07:09:30;;;;;;;67.57;27.43;;;0.30;99.90;;;;;;5070761;28;20199;-72
2021/03/08 07:12:09;;;;;;;55.10;24.50;;;0.50;99.90;;;;;;5068264;28;20271;-73
2021/03/08 07:14:37;;;;;;;57.17;24.87;;;0.60;99.90;;;;;;5067705;28;20232;-72
2021/03/08 07:17:30;;;;;;;60.93;25.70;;;0.70;99.90;;;;;;5073215;28;20227;-73
2021/03/08 07:19:58;;;;;;;62.60;25.87;;;0.80;99.90;;;;;;5086163;28;20227;-73
2021/03/08 07:22:43;;;;;;;59.57;24.27;;;0.90;99.90;;;;;;5069326;28;20299;-73
2021/03/08 07:25:22;;;;;;;64.83;26.53;;;1.00;99.90;;;;;;5067379;28;20868;-73
2021/03/08 07:27:52;;;;;;;66.50;27.47;;;1.20;99.90;;;;;;5068470;28;20216;-73
2021/03/08 07:30:21;;;;;;;60.70;26.13;;;1.20;99.90;;;;;;5089951;28;20191;-73
2021/03/08 07:32:57;;;;;;;60.33;25.43;;;1.30;99.90;;;;;;5090129;28;20294;-73
2021/03/08 07:35:43;;;;;;;61.80;25.83;;;1.40;99.90;;;;;;5070950;28;20796;-73
2021/03/08 07:38:11;;;;;;;54.77;24.70;;;1.50;99.90;;;;;;5064804;28;20757;-72
2021/03/08 07:40:41;;;;;;;69.27;26.30;;;1.60;99.90;;;;;;5065626;28;20311;-73
2021/03/08 07:43:19;;;;;;;66.43;25.43;;;1.70;99.90;;;;;;5066094;28;20294;-72
2021/03/08 07:45:47;;;;;;;69.67;26.33;;;1.90;99.90;;;;;;5067476;28;20194;-73
2021/03/08 07:48:19;;;;;;;78.17;28.90;;;2.00;99.90;;;;;;5077955;28;20203;-69
2021/03/08 07:50:51;;;;;;;72.03;29.57;;;2.20;99.90;;;;;;5073227;28;20653;-73
2021/03/08 07:53:28;;;;;;;75.80;28.30;;;2.30;99.90;;;;;;5077340;28;20458;-72
2021/03/08 07:55:57;;;;;;;73.60;28.27;;;2.40;99.90;;;;;;5087735;28;20218;-72
2021/03/08 07:58:27;;;;;;;59.53;27.73;;;2.60;99.90;;;;;;5069815;28;20621;-70
2021/03/08 08:00:54;;;;;;;61.93;28.10;;;2.80;99.90;;;;;;5072417;28;20733;-72
2021/03/08 08:03:23;;;;;;;58.80;28.60;;;2.80;99.90;;;;;;5066309;28;20200;-73
2021/03/08 08:05:55;;;;;;;60.37;27.90;;;2.70;99.90;;;;;;5073062;28;20192;-72
2021/03/08 08:08:24;;;;;;;67.33;29.30;;;2.80;99.90;;;;;;5070657;28;20678;-70
2021/03/08 08:10:53;;;;;;;61.27;28.73;;;2.90;99.90;;;;;;5074681;28;20237;-72
2021/03/08 08:13:24;;;;;;;61.50;28.90;;;3.30;99.90;;;;;;5073214;28;20196;-72
2021/03/08 08:15:53;;;;;;;70.13;30.40;;;3.80;99.90;;;;;;5073677;28;20186;-72
2021/03/08 08:18:22;;;;;;;67.33;31.40;;;4.20;99.90;;;;;;5081956;28;20235;-72
2021/03/08 08:20:55;;;;;;;60.70;29.60;;;4.80;99.90;;;;;;5076265;28;20266;-73
2021/03/08 08:23:28;;;;;;;66.43;29.77;;;5.40;99.90;;;;;;5074156;28;20665;-72
2021/03/08 08:25:56;;;;;;;64.23;28.27;;;6.00;99.90;;;;;;5075603;28;20196;-73
2021/03/08 08:28:25;;;;;;;63.63;28.73;;;6.50;99.90;;;;;;5078880;28;20196;-71
2021/03/08 08:30:58;;;;;;;62.40;28.93;;;6.80;99.90;;;;;;5072515;28;20284;-73
2021/03/08 08:33:29;;;;;;;65.00;28.47;;;7.00;99.90;;;;;;5066591;28;20191;-72
2021/03/08 08:36:11;;;;;;;65.00;29.53;;;7.00;99.90;;;;;;5075076;28;20784;-72
2021/03/08 08:38:40;;;;;;;63.97;29.30;;;7.10;99.90;;;;;;5081035;28;20218;-72
2021/03/08 08:41:21;;;;;;;65.90;30.43;;;7.30;99.90;;;;;;5070703;28;20207;-70
2021/03/08 08:44:09;;;;;;;63.07;30.87;;;7.60;99.90;;;;;;5066607;28;20212;-71
2021/03/08 08:46:39;;;;;;;62.40;30.43;;;7.80;99.90;;;;;;5065495;28;20253;-72
2021/03/08 08:49:09;;;;;;;62.93;30.17;;;8.00;99.90;;;;;;5071563;28;20688;-71
2021/03/08 08:51:50;;;;;;;60.60;30.53;;;8.30;99.90;;;;;;5070387;28;20274;-72
2021/03/08 08:54:54;;;;;;;60.50;31.20;;;8.50;99.90;;;;;;5080989;28;20721;-72
2021/03/08 08:57:21;;;;;;;65.90;30.57;;;8.70;99.90;;;;;;5073260;28;20623;-72
2021/03/08 09:00:17;;;;;;;62.83;31.37;;;8.80;99.90;;;;;;5072774;28;20658;-73
2021/03/08 09:02:46;;;;;;;58.10;30.40;;;8.90;99.90;;;;;;5068819;28;20249;-72
2021/03/08 09:05:40;;;;;;;55.97;30.47;;;9.00;99.90;;;;;;5074614;28;20185;-72
2021/03/08 09:08:31;;;;;;;55.80;30.37;;;9.40;99.90;;;;;;5069738;28;20200;-72
2021/03/08 09:11:00;;;;;;;58.53;31.70;;;9.80;99.90;;;;;;5063743;28;20535;-72
2021/03/08 09:13:29;;;;;;;60.27;31.57;;;10.00;99.90;;;;;;5087002;28;20206;-72
2021/03/08 09:15:59;;;;;;;56.73;30.90;;;10.30;99.90;;;;;;5071015;28;20292;-72
2021/03/08 09:18:37;;;;;;;48.40;29.00;;;10.40;99.90;;;;;;5070641;28;20241;-72
2021/03/08 09:21:22;;;;;;;48.17;27.77;;;10.30;99.90;;;;;;5070055;28;20226;-72
2021/03/08 09:23:50;;;;;;;52.43;28.73;;;10.50;99.90;;;;;;5063159;28;20191;-73
2021/03/08 09:26:17;;;;;;;57.20;30.87;;;10.80;99.90;;;;;;5074765;28;20192;-72
2021/03/08 09:28:50;;;;;;;50.83;29.67;;;10.50;99.90;;;;;;5077169;28;20283;-71
2021/03/08 09:31:23;;;;;;;48.43;29.50;;;10.80;99.90;;;;;;5072086;28;20184;-72
2021/03/08 09:33:51;;;;;;;47.30;28.80;;;10.90;99.90;;;;;;5070846;28;20716;-72
2021/03/08 09:36:20;;;;;;;47.03;28.47;;;11.20;99.90;;;;;;5076744;28;20558;-73
2021/03/08 09:38:49;;;;;;;49.60;29.13;;;11.50;99.90;;;;;;5069487;28;20282;-72
2021/03/08 09:41:17;;;;;;;45.90;28.67;;;11.40;99.90;;;;;;5076317;28;20280;-72
2021/03/08 09:43:44;;;;;;;53.40;30.10;;;11.20;99.90;;;;;;5068739;28;20257;-73
2021/03/08 09:46:15;;;;;;;48.43;29.43;;;11.20;99.90;;;;;;5067661;28;20227;-70
2021/03/08 09:48:53;;;;;;;48.73;29.13;;;11.60;99.90;;;;;;5069019;28;20658;-68
2021/03/08 09:51:21;;;;;;;44.30;26.97;;;12.00;99.90;;;;;;5072137;28;20268;-73
2021/03/08 09:53:52;;;;;;;49.97;28.43;;;12.20;99.90;;;;;;5070701;28;20766;-72
2021/03/08 09:56:21;;;;;;;38.27;24.23;;;12.40;99.90;;;;;;5070210;28;20223;-71
2021/03/08 09:58:59;;;;;;;40.07;25.27;;;13.00;99.90;;;;;;5068275;28;20614;-73
2021/03/08 10:01:26;;;;;;;34.20;21.93;;;13.50;99.90;;;;;;5080480;28;20211;-73
2021/03/08 10:03:56;;;;;;;30.70;19.33;;;13.50;99.90;;;;;;5079434;28;20654;-72
2021/03/08 10:06:45;;;;;;;29.60;19.40;;;14.00;99.90;;;;;;5075473;28;20195;-71
2021/03/08 10:09:18;;;;;;;35.07;21.77;;;14.00;99.90;;;;;;5069182;28;20222;-73
2021/03/08 10:11:45;;;;;;;38.73;23.43;;;13.70;99.90;;;;;;5068190;28;20230;-73
2021/03/08 10:14:23;;;;;;;35.20;23.20;;;13.60;99.90;;;;;;5073312;28;20298;-71
2021/03/08 10:16:50;;;;;;;35.40;22.17;;;13.80;99.90;;;;;;5065770;28;20206;-73
2021/03/08 10:19:21;;;;;;;36.37;22.60;;;13.90;99.90;;;;;;5073882;28;20195;-72
2021/03/08 10:21:48;;;;;;;33.70;21.33;;;14.40;99.90;;;;;;5073019;28;20310;-72
2021/03/08 10:24:33;;;;;;;22.47;13.97;;;14.20;99.90;;;;;;5066879;28;20188;-72
2021/03/08 10:27:00;;;;;;;28.03;18.20;;;14.20;98.40;;;;;;5072532;28;20206;-72
2021/03/08 10:29:28;;;;;;;29.80;19.87;;;13.80;99.90;;;;;;5067455;28;20811;-67
2021/03/08 10:31:55;;;;;;;31.57;19.60;;;13.70;99.30;;;;;;5069868;28;20655;-73
2021/03/08 10:34:24;;;;;;;36.77;24.40;;;13.80;99.90;;;;;;5079020;28;20282;-73
2021/03/08 10:37:06;;;;;;;33.23;22.87;;;14.50;99.90;;;;;;5080033;28;20245;-72
2021/03/08 10:39:34;;;;;;;38.03;23.20;;;15.10;99.90;;;;;;5072017;28;20276;-73
2021/03/08 10:42:01;;;;;;;31.23;21.37;;;15.30;99.90;;;;;;5069444;28;20248;-68
2021/03/08 10:44:29;;;;;;;33.63;21.97;;;15.70;99.80;;;;;;5069493;28;20225;-72
2021/03/08 10:46:57;;;;;;;40.10;24.90;;;15.20;98.20;;;;;;5067358;28;20283;-73
2021/03/08 10:49:25;;;;;;;35.87;23.83;;;14.30;98.20;;;;;;5066555;28;20679;-70
2021/03/08 10:51:55;;;;;;;34.47;23.07;;;14.20;99.90;;;;;;5068749;28;20196;-72
2021/03/08 10:54:22;;;;;;;40.20;24.30;;;14.80;99.90;;;;;;5064651;28;20303;-72
2021/03/08 10:56:59;;;;;;;34.40;23.13;;;14.90;98.80;;;;;;5069471;28;20196;-73
2021/03/08 10:59:29;;;;;;;31.10;21.70;;;15.50;98.60;;;;;;5059708;28;20713;-73
2021/03/08 11:02:01;;;;;;;30.33;22.17;;;16.00;99.20;;;;;;5065498;28;20207;-72
2021/03/08 11:04:29;;;;;;;33.00;22.13;;;16.00;97.30;;;;;;5067684;28;20331;-72
2021/03/08 11:06:58;;;;;;;34.30;22.23;;;15.50;96.50;;;;;;5069589;28;20205;-72
2021/03/08 11:09:26;;;;;;;35.93;22.30;;;15.00;96.80;;;;;;5067515;28;20258;-72
2021/03/08 11:11:54;;;;;;;38.00;22.43;;;14.70;97.50;;;;;;5067754;28;20189;-72
2021/03/08 11:14:22;;;;;;;33.70;21.07;;;14.30;97.10;;;;;;5065224;28;20775;-72
2021/03/08 11:16:51;;;;;;;33.27;21.00;;;14.30;98.40;;;;;;5066895;28;20249;-72
2021/03/08 11:19:21;;;;;;;27.87;20.47;;;14.90;98.60;;;;;;5065888;28;20257;-72
2021/03/08 11:22:03;;;;;;;36.40;23.13;;;15.20;98.30;;;;;;5070345;28;20216;-71
2021/03/08 11:24:31;;;;;;;33.73;22.90;;;15.00;96.40;;;;;;5068820;28;20249;-71
2021/03/08 11:27:17;;;;;;;35.63;21.30;;;14.60;96.70;;;;;;5073662;28;20199;-72
2021/03/08 11:29:59;;;;;;;33.67;20.97;;;15.10;97.90;;;;;;5064662;28;20238;-72
2021/03/08 11:32:28;;;;;;;31.30;20.93;;;14.70;97.40;;;;;;5067879;28;20212;-71
2021/03/08 11:35:15;;;;;;;32.60;20.73;;;14.40;98.80;;;;;;5067347;28;20196;-72
2021/03/08 11:37:57;;;;;;;34.27;21.90;;;14.80;98.20;;;;;;5068462;28;20196;-72
2021/03/08 11:40:29;;;;;;;32.77;21.73;;;15.40;98.30;;;;;;5066747;28;20206;-70
2021/03/08 11:42:58;;;;;;;32.27;20.30;;;15.80;97.60;;;;;;5068162;28;20215;-72
2021/03/08 11:45:26;;;;;;;31.77;20.33;;;15.60;96.80;;;;;;5083054;28;20192;-73
2021/03/08 11:47:55;;;;;;;32.27;20.60;;;15.50;97.60;;;;;;5068044;28;20200;-72
2021/03/08 11:50:24;;;;;;;30.50;20.17;;;15.30;97.00;;;;;;5074796;28;20193;-72
2021/03/08 11:52:53;;;;;;;34.77;20.20;;;15.30;97.50;;;;;;5068982;28;20318;-72
2021/03/08 11:55:22;;;;;;;32.70;20.37;;;15.00;96.50;;;;;;5067631;28;20279;-72
2021/03/08 11:57:50;;;;;;;25.10;16.53;;;15.10;98.10;;;;;;5059844;28;20197;-71
2021/03/08 12:00:20;;;;;;;27.27;17.87;;;15.70;97.40;;;;;;5063920;28;20192;-72
2021/03/08 12:02:48;;;;;;;25.00;16.13;;;16.00;97.00;;;;;;5076695;28;20237;-72
2021/03/08 12:05:16;;;;;;;25.27;17.07;;;15.60;94.80;;;;;;5089865;28;20682;-72
2021/03/08 12:07:49;;;;;;;27.47;18.17;;;15.10;95.00;;;;;;5081104;28;20199;-72
2021/03/08 12:10:17;;;;;;;28.37;18.03;;;15.20;97.40;;;;;;5070231;28;20199;-71
2021/03/08 12:12:45;;;;;;;27.00;17.33;;;15.60;97.10;;;;;;5066282;28;20238;-71
2021/03/08 12:15:13;;;;;;;28.23;16.43;;;15.90;96.70;;;;;;5064473;28;20395;-71
2021/03/08 12:17:40;;;;;;;29.00;17.63;;;15.60;95.70;;;;;;5063897;28;20207;-71
2021/03/08 12:20:15;;;;;;;30.23;16.20;;;15.40;97.00;;;;;;5070198;28;20291;-72
2021/03/08 12:22:42;;;;;;;23.37;15.30;;;15.60;96.50;;;;;;5067995;28;20235;-73
2021/03/08 12:25:11;;;;;;;21.77;14.60;;;15.70;97.30;;;;;;5077218;28;20202;-72
2021/03/08 12:27:46;;;;;;;23.77;15.03;;;15.70;95.90;;;;;;5069867;28;20293;-71
2021/03/08 12:30:15;;;;;;;21.43;14.17;;;15.70;95.50;;;;;;5077566;28;20717;-71
2021/03/08 12:32:45;;;;;;;28.73;16.20;;;15.60;94.80;;;;;;5074132;28;20700;-71
2021/03/08 12:35:13;;;;;;;27.20;16.80;;;15.30;95.90;;;;;;5069606;28;20291;-71
2021/03/08 12:37:41;;;;;;;26.20;16.70;;;15.20;95.80;;;;;;5071345;28;20192;-71
2021/03/08 12:40:10;;;;;;;25.17;16.03;;;15.30;96.40;;;;;;5071621;28;20321;-72
2021/03/08 12:42:37;;;;;;;34.50;18.30;;;15.20;96.20;;;;;;5073042;28;20247;-71
2021/03/08 12:45:08;;;;;;;25.97;17.23;;;14.80;95.90;;;;;;5063878;28;20726;-72
2021/03/08 12:47:35;;;;;;;29.77;16.70;;;14.60;95.30;;;;;;5068898;28;20188;-71
2021/03/08 12:50:08;;;;;;;28.77;17.13;;;14.30;96.80;;;;;;5071268;28;20242;-71
2021/03/08 12:52:36;;;;;;;27.33;16.30;;;13.90;96.10;;;;;;5074254;28;20220;-71